»·PEaware :: N36JC KAJO-KVCV

N36JC :: KAJO-KVCV

FLIGHT INFORMATION

Flight Status: Arrived
Operator: Privately registered:
United States
More flights under this callsign
Pilot: David S. (31490)
Aircraft: CESSNA 172 SKYHAWK
(C172)
More flights by this aircraft type
Origin: KAJO Corona Mun
United States
Destination: KVCV Socal Logistics
United States
More flights between these airports :: More routes between these airports
Route: PDZ V442 APLES
File this flight plan on PilotEdge
Remarks:
Altitude:
(Current/Filed)
9,000ft
Speed:
(Current/Filed)
120kts
Departed: 19-Oct-20 11:43 AM
Arrived: 19-Oct-20 01:16 PM
Distance/Time
Traveled:
43nm/1:32
Distance/Time
To Go:
Arrived

Flight Plot

Page will automatically refresh every two minutes.


Map Options




Map Legend


Flown Route
Filed Route
Departure Airport
Arrival Airport
Navaid (VOR, NDB)
Fix

Horizontal Profiles

Position Reports

Time Latitude Longitude Heading Altitude Ground
Speed
19-Oct-20 11:36 33.896988 -117.607013 180 537ft 0kts
19-Oct-20 11:37 33.896988 -117.607013 180 537ft 0kts
19-Oct-20 11:38 33.896988 -117.607013 180 537ft 0kts
19-Oct-20 11:39 33.896988 -117.607013 180 537ft 0kts
19-Oct-20 11:40 33.896988 -117.607013 180 537ft 0kts
19-Oct-20 11:41 33.897198 -117.607287 305 537ft 0kts
19-Oct-20 11:41 33.897241 -117.607359 306 537ft 0kts
19-Oct-20 11:43 33.900356 -117.586262 82 1135ft 84kts
19-Oct-20 11:43 33.906772 -117.564136 65 1951ft 86kts
19-Oct-20 11:45 33.917436 -117.534173 68 3111ft 79kts
19-Oct-20 11:45 33.927268 -117.518595 42 3917ft 62kts
19-Oct-20 11:46 33.943045 -117.504711 18 4418ft 97kts
19-Oct-20 11:47 33.934767 -117.511620 192 4815ft 112kts
19-Oct-20 11:48 33.917567 -117.530272 232 5789ft 76kts
19-Oct-20 11:49 33.929574 -117.547375 22 6039ft 117kts
19-Oct-20 11:50 33.956219 -117.521412 50 6212ft 118kts
19-Oct-20 11:51 33.941958 -117.505577 224 6880ft 96kts
19-Oct-20 11:52 33.924675 -117.526301 216 7659ft 78kts
19-Oct-20 11:53 33.914361 -117.544178 301 8259ft 75kts
19-Oct-20 11:54 33.931977 -117.538461 44 8768ft 81kts
19-Oct-20 11:55 33.949547 -117.516473 63 9014ft 110kts
19-Oct-20 11:56 33.929608 -117.504227 232 8991ft 125kts
19-Oct-20 11:57 33.948465 -117.523531 17 8970ft 126kts
19-Oct-20 11:58 33.979278 -117.503756 40 8968ft 126kts
19-Oct-20 12:07 33.896920 -117.605909 90 537ft 0kts
19-Oct-20 12:08 33.896920 -117.605909 90 537ft 0kts
19-Oct-20 12:09 33.896920 -117.605909 90 537ft 0kts
19-Oct-20 12:10 33.897139 -117.605808 1 537ft 0kts
19-Oct-20 12:11 33.897316 -117.605796 6 537ft 8kts
19-Oct-20 12:12 33.899900 -117.584522 72 1009ft 98kts
19-Oct-20 12:13 33.908164 -117.553796 68 1975ft 93kts
19-Oct-20 12:14 33.920740 -117.526956 41 2877ft 93kts
19-Oct-20 12:15 33.939440 -117.506329 38 3770ft 89kts
19-Oct-20 12:16 33.953216 -117.519885 239 4664ft 79kts
19-Oct-20 12:17 33.933954 -117.523553 177 5424ft 77kts
19-Oct-20 12:18 33.912842 -117.532559 221 5993ft 97kts
19-Oct-20 12:19 33.923039 -117.553212 31 6542ft 86kts
19-Oct-20 12:20 33.933732 -117.532822 70 7309ft 69kts
19-Oct-20 12:21 33.946323 -117.511748 25 7695ft 98kts
19-Oct-20 12:22 33.973172 -117.496427 24 8010ft 112kts
19-Oct-20 12:23 33.996927 -117.482818 26 8819ft 76kts
19-Oct-20 12:24 34.018224 -117.469336 25 9042ft 109kts
19-Oct-20 12:25 34.048499 -117.452294 24 8987ft 127kts
19-Oct-20 12:26 34.079660 -117.432393 31 8986ft 126kts
19-Oct-20 12:27 34.111555 -117.414441 26 8986ft 126kts
19-Oct-20 12:28 34.142936 -117.395379 26 8986ft 126kts
19-Oct-20 12:29 34.174235 -117.375742 27 8985ft 126kts
19-Oct-20 12:30 34.205507 -117.356220 25 8985ft 126kts
19-Oct-20 12:31 34.237112 -117.337357 26 8985ft 126kts
19-Oct-20 12:32 34.268719 -117.318594 26 8985ft 126kts
19-Oct-20 12:33 34.300291 -117.299944 26 8985ft 126kts
19-Oct-20 12:34 34.332035 -117.281274 26 8985ft 126kts
19-Oct-20 12:35 34.363192 -117.261493 27 8985ft 126kts
19-Oct-20 12:36 34.394473 -117.241622 27 8985ft 126kts
19-Oct-20 12:37 34.425656 -117.221907 27 8985ft 126kts
19-Oct-20 12:38 34.456918 -117.202235 27 8985ft 126kts
19-Oct-20 12:39 34.488203 -117.182640 27 8985ft 126kts
19-Oct-20 12:40 34.519983 -117.164180 24 8985ft 126kts
19-Oct-20 12:41 34.552435 -117.148009 11 8985ft 126kts
19-Oct-20 12:42 34.589684 -117.141971 1 8562ft 141kts
19-Oct-20 12:43 34.628801 -117.146597 351 8064ft 142kts
19-Oct-20 12:44 34.667525 -117.156357 340 7562ft 142kts
19-Oct-20 12:45 34.702910 -117.177816 327 7062ft 142kts
19-Oct-20 12:46 34.734544 -117.207553 317 6577ft 135kts
19-Oct-20 12:47 34.758718 -117.240816 307 6573ft 130kts
19-Oct-20 12:48 34.778944 -117.277205 298 6572ft 129kts
19-Oct-20 12:49 34.791261 -117.320871 284 5905ft 141kts
19-Oct-20 12:50 34.798031 -117.365260 262 5171ft 116kts
19-Oct-20 12:51 34.773740 -117.375615 180 5113ft 98kts
19-Oct-20 12:52 34.743790 -117.377340 183 4712ft 109kts
19-Oct-20 12:53 34.713457 -117.379579 183 4366ft 112kts
19-Oct-20 12:54 34.684059 -117.381663 183 4178ft 106kts
19-Oct-20 12:55 34.652147 -117.384497 184 3495ft 128kts
19-Oct-20 12:56 34.617470 -117.387506 184 3398ft 130kts
19-Oct-20 12:57 34.584780 -117.390241 183 4054ft 105kts
19-Oct-20 12:58 34.574852 -117.409592 313 5014ft 83kts
19-Oct-20 12:59 34.590341 -117.426997 317 5840ft 76kts
19-Oct-20 13:00 34.605881 -117.451677 284 6021ft 122kts
19-Oct-20 13:01 34.611890 -117.494118 281 6026ft 129kts
19-Oct-20 13:02 34.619988 -117.536784 283 6027ft 130kts
19-Oct-20 13:03 34.629367 -117.579619 285 5976ft 131kts
19-Oct-20 13:04 34.638911 -117.622221 285 5976ft 130kts
19-Oct-20 13:05 34.658575 -117.652206 16 5884ft 135kts
19-Oct-20 13:06 34.666194 -117.610719 96 5321ft 124kts
19-Oct-20 13:07 34.655793 -117.568008 110 4704ft 145kts
19-Oct-20 13:08 34.641680 -117.522672 110 4304ft 135kts
19-Oct-20 13:09 34.628592 -117.480311 110 4283ft 133kts
19-Oct-20 13:10 34.615104 -117.438587 109 4282ft 132kts
19-Oct-20 13:11 34.587125 -117.417891 165 4169ft 113kts
19-Oct-20 13:12 34.562004 -117.401683 84 4015ft 107kts
19-Oct-20 13:13 34.574924 -117.386259 357 3147ft 67kts
19-Oct-20 13:14 34.588940 -117.386440 358 2867ft 47kts
19-Oct-20 13:15 34.594884 -117.385171 88 2855ft 0kts
19-Oct-20 13:16 34.594889 -117.384532 89 2855ft 18kts
19-Oct-20 13:17 34.592719 -117.381363 135 2860ft 36kts
19-Oct-20 13:18 34.589336 -117.377152 125 2869ft 0kts
19-Oct-20 13:20 34.587689 -117.375677 311 2871ft 0kts

Navigation Log

Ident Type
Flight plan parsing failed, navigation log unavailable